KC5AEE Weather Reports


Display with metric or nautical units.
time (UTC)temp
F
wind
direction
speed
MPH
gust
MPH
rain 1hr
in
rain 24hr
in
rain mn
in
humidity
%
barometer
mb
20221210014815 37 320 0.0 0.0 0.00 0.00 0.00 61 1020.7
20221210011833 38 360 0.0 0.0 0.00 0.00 0.00 60 1020.6
20221210010316 38 360 0.0 0.0 0.00 0.00 0.00 58 1020.5
20221210004816 39 360 2.0 4.0 0.00 0.00 0.00 56 1020.2
20221210003313 39 360 3.0 6.0 0.00 0.00 0.00 55 1020.2
20221210001811 40 342 1.0 5.0 0.00 0.00 0.00 55 1020.0
20221210000315 41 343 3.0 5.0 0.00 0.00 0.00 56 1020.0
20221209234833 43 360 6.0 12.0 0.00 0.00 0.00 58 1020.0
20221209233313 44 360 7.0 11.0 0.00 0.00 0.00 56 1019.9
20221209231822 44 360 8.0 13.0 0.00 0.00 0.00 54 1019.8
20221209230333 45 360 8.0 15.0 0.00 0.00 0.00 52 1019.8
20221209224817 46 282 7.0 15.0 0.00 0.00 0.00 51 1019.6
20221209223324 46 360 8.0 15.0 0.00 0.00 0.00 50 1019.6
20221209221818 47 252 9.0 15.0 0.00 0.00 0.00 50 1019.7
20221209220321 48 360 8.0 14.0 0.00 0.00 0.00 48 1019.6
20221209214829 48 360 6.0 12.0 0.00 0.00 0.00 48 1019.6
20221209213329 47 360 8.0 15.0 0.00 0.00 0.00 49 1019.6
20221209211815 47 360 9.0 18.0 0.00 0.00 0.00 48 1019.6
20221209210320 47 360 10.0 17.0 0.00 0.00 0.00 49 1019.5
20221209204835 48 360 9.0 16.0 0.00 0.00 0.00 49 1019.8
20221209203334 48 360 8.0 14.0 0.00 0.00 0.00 48 1019.8
20221209201826 48 360 7.0 16.0 0.00 0.00 0.00 47 1020.0
20221209200315 48 360 7.0 14.0 0.00 0.00 0.00 49 1020.1
20221209194817 47 291 9.0 15.0 0.00 0.00 0.00 50 1020.3
20221209193319 46 287 9.0 15.0 0.00 0.00 0.00 50 1020.7
20221209191812 46 360 8.0 14.0 0.00 0.00 0.00 54 1021.0
20221209190314 46 360 9.0 16.0 0.00 0.00 0.00 53 1021.3
20221209181814 43 360 7.0 12.0 0.00 0.00 0.00 54 1022.4
20221209180340 43 259 7.0 13.0 0.00 0.00 0.00 53 1022.6
20221209174818 44 360 5.0 11.0 0.00 0.00 0.00 51 1022.9
20221209173316 42 280 4.0 10.0 0.00 0.00 0.00 50 1022.8
20221209171819 41 263 4.0 7.0 0.00 0.00 0.00 48 1023.0
20221209170335 40 261 4.0 8.0 0.00 0.00 0.00 49 1023.0
20221209164820 40 360 2.0 6.0 0.00 0.00 0.00 47 1023.0
20221209161833 38 277 2.0 5.0 0.00 0.00 0.00 46 1023.3
20221209160312 38 360 1.0 5.0 0.00 0.00 0.00 47 1023.0
20221209154829 37 244 0.0 0.0 0.00 0.00 0.00 46 1022.9
20221209150311 36 360 0.0 0.0 0.00 0.00 0.00 48 1022.8
20221209143311 36 360 3.0 4.0 0.00 0.00 0.00 49 1022.8
20221209141814 36 360 4.0 5.0 0.00 0.00 0.00 49 1022.6
20221209140316 36 360 3.0 4.0 0.00 0.00 0.00 49 1022.6
20221209133328 36 360 3.0 4.0 0.00 0.00 0.00 51 1022.8
20221209131814 35 360 3.0 5.0 0.00 0.00 0.00 52 1022.9
20221209130317 35 92 0.0 0.0 0.00 0.00 0.00 52 1022.7
20221209124817 35 360 0.0 0.0 0.00 0.00 0.00 50 1022.6
20221209121828 34 92 0.0 0.0 0.00 0.00 0.00 39 1022.7
20221209120325 34 92 0.0 0.0 0.00 0.00 0.00 37 1022.8
20221209114815 34 91 0.0 0.0 0.00 0.00 0.00 37 1022.8
20221209110316 34 91 2.0 3.0 0.00 0.00 0.00 37 1023.2
20221209104829 33 360 0.0 0.0 0.00 0.00 0.00 37 1023.3
20221209103336 33 360 0.0 0.0 0.00 0.00 0.00 39 1023.4
20221209101815 33 360 0.0 0.0 0.00 0.00 0.00 41 1023.7
20221209100317 33 360 0.0 0.0 0.00 0.00 0.00 40 1024.2
20221209094814 34 57 0.0 2.0 0.00 0.00 0.00 37 1024.2
20221209093309 33 360 2.0 3.0 0.00 0.00 0.00 39 1024.2
20221209091809 33 360 3.0 4.0 0.00 0.00 0.00 43 1024.3
20221209090313 33 360 2.0 3.0 0.00 0.00 0.00 42 1024.5
20221209084811 33 360 4.0 6.0 0.00 0.00 0.00 41 1024.6
20221209083312 32 360 4.0 5.0 0.00 0.00 0.00 44 1024.7
20221209081811 31 360 4.0 5.0 0.00 0.00 0.00 47 1024.7
20221209074804 31 360 2.0 4.0 0.00 0.00 0.00 50 1025.1
20221209073315 31 360 0.0 4.0 0.00 0.00 0.00 51 1025.2
20221209071816 30 360 0.0 0.0 0.00 0.00 0.00 51 1025.4
20221209070321 30 360 0.0 0.0 0.00 0.00 0.00 52 1025.5
20221209064818 30 360 0.0 0.0 0.00 0.00 0.00 51 1025.6
20221209063323 30 360 2.0 3.0 0.00 0.00 0.00 51 1025.9
20221209061817 30 19 0.0 0.0 0.00 0.00 0.00 52 1026.0
20221209060333 30 360 0.0 0.0 0.00 0.00 0.00 52 1026.0
20221209054819 30 23 3.0 4.0 0.00 0.00 0.00 52 1026.0
20221209053317 30 360 3.0 6.0 0.00 0.00 0.00 52 1025.9
20221209051814 31 360 4.0 6.0 0.00 0.00 0.00 51 1026.1
20221209044819 31 345 5.0 9.0 0.00 0.00 0.00 50 1025.9
20221209041825 31 360 5.0 8.0 0.00 0.00 0.00 46 1025.5
20221209040318 32 360 5.0 9.0 0.00 0.00 0.00 44 1025.6
20221209034821 32 342 6.0 9.0 0.00 0.00 0.00 41 1025.8
20221209031834 32 313 3.0 5.0 0.00 0.00 0.00 38 1026.0
20221209030319 32 322 4.0 5.0 0.00 0.00 0.00 41 1026.1
20221209023319 32 304 5.0 6.0 0.00 0.00 0.00 45 1026.0
20221209021817 33 360 0.0 2.0 0.00 0.00 0.00 43 1026.1
20221209020318 33 360 3.0 5.0 0.00 0.00 0.00 39 1025.9